sensor_id;sensor_type;location;lat;lon;timestamp;P1;durP1;ratioP1;P2;durP2;ratioP2
52730;SDS011;38624;53.242;6.974;2024-02-23T00:00:51;0.77;;;0.60;;
52730;SDS011;38624;53.242;6.974;2024-02-23T00:03:17;3.53;;;0.70;;
52730;SDS011;38624;53.242;6.974;2024-02-23T00:05:43;1.83;;;0.68;;
52730;SDS011;38624;53.242;6.974;2024-02-23T00:08:09;2.60;;;0.65;;
52730;SDS011;38624;53.242;6.974;2024-02-23T00:10:35;1.77;;;0.90;;
52730;SDS011;38624;53.242;6.974;2024-02-23T00:13:01;3.47;;;0.70;;
52730;SDS011;38624;53.242;6.974;2024-02-23T00:15:27;4.30;;;1.03;;
52730;SDS011;38624;53.242;6.974;2024-02-23T00:17:54;4.28;;;1.10;;
52730;SDS011;38624;53.242;6.974;2024-02-23T00:20:20;3.23;;;0.87;;
52730;SDS011;38624;53.242;6.974;2024-02-23T00:22:46;4.17;;;0.90;;
52730;SDS011;38624;53.242;6.974;2024-02-23T00:25:12;5.30;;;0.90;;
52730;SDS011;38624;53.242;6.974;2024-02-23T00:27:39;3.60;;;0.77;;
52730;SDS011;38624;53.242;6.974;2024-02-23T00:30:07;4.63;;;1.05;;
52730;SDS011;38624;53.242;6.974;2024-02-23T00:32:33;4.78;;;1.00;;
52730;SDS011;38624;53.242;6.974;2024-02-23T00:34:59;5.37;;;0.90;;
52730;SDS011;38624;53.242;6.974;2024-02-23T00:37:25;5.15;;;0.90;;
52730;SDS011;38624;53.242;6.974;2024-02-23T00:39:51;3.67;;;0.90;;
52730;SDS011;38624;53.242;6.974;2024-02-23T00:42:17;3.10;;;1.00;;
52730;SDS011;38624;53.242;6.974;2024-02-23T00:44:46;7.50;;;1.20;;
52730;SDS011;38624;53.242;6.974;2024-02-23T00:47:12;1.85;;;0.70;;
52730;SDS011;38624;53.242;6.974;2024-02-23T00:49:38;7.17;;;1.23;;
52730;SDS011;38624;53.242;6.974;2024-02-23T00:52:04;5.47;;;0.98;;
52730;SDS011;38624;53.242;6.974;2024-02-23T00:54:30;5.83;;;1.00;;
52730;SDS011;38624;53.242;6.974;2024-02-23T00:56:56;5.05;;;0.90;;
52730;SDS011;38624;53.242;6.974;2024-02-23T00:59:22;2.17;;;0.70;;
52730;SDS011;38624;53.242;6.974;2024-02-23T01:01:48;6.15;;;0.90;;
52730;SDS011;38624;53.242;6.974;2024-02-23T01:04:15;5.47;;;1.40;;
52730;SDS011;38624;53.242;6.974;2024-02-23T01:06:41;4.03;;;0.93;;
52730;SDS011;38624;53.242;6.974;2024-02-23T01:09:07;4.10;;;1.10;;
52730;SDS011;38624;53.242;6.974;2024-02-23T01:11:33;4.30;;;0.80;;
52730;SDS011;38624;53.242;6.974;2024-02-23T01:13:59;4.97;;;0.90;;
52730;SDS011;38624;53.242;6.974;2024-02-23T01:16:25;5.07;;;1.10;;
52730;SDS011;38624;53.242;6.974;2024-02-23T01:18:51;4.47;;;1.10;;
52730;SDS011;38624;53.242;6.974;2024-02-23T01:21:17;2.10;;;0.80;;
52730;SDS011;38624;53.242;6.974;2024-02-23T01:23:43;2.50;;;0.95;;
52730;SDS011;38624;53.242;6.974;2024-02-23T01:26:09;6.22;;;1.35;;
52730;SDS011;38624;53.242;6.974;2024-02-23T01:28:35;3.30;;;1.00;;
52730;SDS011;38624;53.242;6.974;2024-02-23T01:31:02;3.92;;;1.08;;
52730;SDS011;38624;53.242;6.974;2024-02-23T01:33:29;4.22;;;1.10;;
52730;SDS011;38624;53.242;6.974;2024-02-23T01:35:55;2.72;;;0.95;;
52730;SDS011;38624;53.242;6.974;2024-02-23T01:38:23;3.72;;;1.08;;
52730;SDS011;38624;53.242;6.974;2024-02-23T01:40:50;3.45;;;0.90;;
52730;SDS011;38624;53.242;6.974;2024-02-23T01:43:16;3.10;;;0.80;;
52730;SDS011;38624;53.242;6.974;2024-02-23T01:45:42;3.92;;;1.00;;
52730;SDS011;38624;53.242;6.974;2024-02-23T01:48:08;4.10;;;1.10;;
52730;SDS011;38624;53.242;6.974;2024-02-23T01:50:34;5.80;;;1.20;;
52730;SDS011;38624;53.242;6.974;2024-02-23T01:53:01;3.85;;;1.30;;
52730;SDS011;38624;53.242;6.974;2024-02-23T01:55:28;2.50;;;1.15;;
52730;SDS011;38624;53.242;6.974;2024-02-23T01:57:54;3.55;;;1.60;;
52730;SDS011;38624;53.242;6.974;2024-02-23T02:00:30;4.45;;;1.27;;
52730;SDS011;38624;53.242;6.974;2024-02-23T02:02:56;3.53;;;1.40;;
52730;SDS011;38624;53.242;6.974;2024-02-23T02:05:22;8.20;;;1.50;;
52730;SDS011;38624;53.242;6.974;2024-02-23T02:07:52;5.30;;;1.30;;
52730;SDS011;38624;53.242;6.974;2024-02-23T02:10:24;3.63;;;1.10;;
52730;SDS011;38624;53.242;6.974;2024-02-23T02:12:50;2.50;;;1.23;;
52730;SDS011;38624;53.242;6.974;2024-02-23T02:15:16;5.97;;;1.70;;
52730;SDS011;38624;53.242;6.974;2024-02-23T02:17:42;4.90;;;1.23;;
52730;SDS011;38624;53.242;6.974;2024-02-23T02:20:12;4.27;;;1.43;;
52730;SDS011;38624;53.242;6.974;2024-02-23T02:22:38;5.38;;;1.73;;
52730;SDS011;38624;53.242;6.974;2024-02-23T02:25:05;4.82;;;1.60;;
52730;SDS011;38624;53.242;6.974;2024-02-23T02:27:31;5.90;;;1.35;;
52730;SDS011;38624;53.242;6.974;2024-02-23T02:29:58;5.05;;;1.33;;
52730;SDS011;38624;53.242;6.974;2024-02-23T02:32:24;6.93;;;1.33;;
52730;SDS011;38624;53.242;6.974;2024-02-23T02:34:50;5.68;;;1.35;;
52730;SDS011;38624;53.242;6.974;2024-02-23T02:37:16;5.45;;;1.17;;
52730;SDS011;38624;53.242;6.974;2024-02-23T02:39:42;8.80;;;1.33;;
52730;SDS011;38624;53.242;6.974;2024-02-23T02:42:08;7.32;;;1.83;;
52730;SDS011;38624;53.242;6.974;2024-02-23T02:44:34;7.53;;;1.93;;
52730;SDS011;38624;53.242;6.974;2024-02-23T02:47:00;7.43;;;1.65;;
52730;SDS011;38624;53.242;6.974;2024-02-23T02:49:26;5.95;;;1.60;;
52730;SDS011;38624;53.242;6.974;2024-02-23T02:51:55;8.38;;;1.98;;
52730;SDS011;38624;53.242;6.974;2024-02-23T02:54:21;7.88;;;1.85;;
52730;SDS011;38624;53.242;6.974;2024-02-23T02:56:47;10.55;;;1.90;;
52730;SDS011;38624;53.242;6.974;2024-02-23T02:59:15;6.60;;;1.88;;
52730;SDS011;38624;53.242;6.974;2024-02-23T03:01:43;10.95;;;1.90;;
52730;SDS011;38624;53.242;6.974;2024-02-23T03:04:10;7.78;;;1.65;;
52730;SDS011;38624;53.242;6.974;2024-02-23T03:06:37;10.73;;;2.20;;
52730;SDS011;38624;53.242;6.974;2024-02-23T03:09:03;9.55;;;2.00;;
52730;SDS011;38624;53.242;6.974;2024-02-23T03:11:30;8.55;;;2.05;;
52730;SDS011;38624;53.242;6.974;2024-02-23T03:13:56;9.97;;;2.37;;
52730;SDS011;38624;53.242;6.974;2024-02-23T03:16:22;10.50;;;1.77;;
52730;SDS011;38624;53.242;6.974;2024-02-23T03:18:51;7.35;;;1.90;;
52730;SDS011;38624;53.242;6.974;2024-02-23T03:21:19;11.30;;;2.40;;
52730;SDS011;38624;53.242;6.974;2024-02-23T03:23:45;10.68;;;1.75;;
52730;SDS011;38624;53.242;6.974;2024-02-23T03:26:11;8.10;;;2.50;;
52730;SDS011;38624;53.242;6.974;2024-02-23T03:28:37;10.07;;;2.17;;
52730;SDS011;38624;53.242;6.974;2024-02-23T03:31:03;9.83;;;2.10;;
52730;SDS011;38624;53.242;6.974;2024-02-23T03:33:29;9.93;;;2.30;;
52730;SDS011;38624;53.242;6.974;2024-02-23T03:35:57;6.87;;;2.03;;
52730;SDS011;38624;53.242;6.974;2024-02-23T03:38:23;7.10;;;2.47;;
52730;SDS011;38624;53.242;6.974;2024-02-23T03:40:49;7.97;;;2.07;;
52730;SDS011;38624;53.242;6.974;2024-02-23T03:43:15;11.63;;;1.83;;
52730;SDS011;38624;53.242;6.974;2024-02-23T03:45:41;9.07;;;1.88;;
52730;SDS011;38624;53.242;6.974;2024-02-23T03:48:07;7.77;;;2.03;;
52730;SDS011;38624;53.242;6.974;2024-02-23T03:50:34;14.67;;;2.13;;
52730;SDS011;38624;53.242;6.974;2024-02-23T03:53:00;8.83;;;1.73;;
52730;SDS011;38624;53.242;6.974;2024-02-23T03:55:26;13.57;;;2.15;;
52730;SDS011;38624;53.242;6.974;2024-02-23T03:57:52;8.70;;;1.57;;
52730;SDS011;38624;53.242;6.974;2024-02-23T04:00:18;7.32;;;1.83;;
52730;SDS011;38624;53.242;6.974;2024-02-23T04:02:45;11.25;;;1.75;;
52730;SDS011;38624;53.242;6.974;2024-02-23T04:05:12;7.47;;;1.50;;
52730;SDS011;38624;53.242;6.974;2024-02-23T04:07:38;9.60;;;1.63;;
52730;SDS011;38624;53.242;6.974;2024-02-23T04:10:04;7.37;;;1.57;;
52730;SDS011;38624;53.242;6.974;2024-02-23T04:12:31;7.03;;;1.55;;
52730;SDS011;38624;53.242;6.974;2024-02-23T04:14:57;9.55;;;1.92;;
52730;SDS011;38624;53.242;6.974;2024-02-23T04:17:23;9.00;;;1.70;;
52730;SDS011;38624;53.242;6.974;2024-02-23T04:19:49;9.95;;;1.95;;
52730;SDS011;38624;53.242;6.974;2024-02-23T04:22:15;8.73;;;1.50;;
52730;SDS011;38624;53.242;6.974;2024-02-23T04:24:42;9.43;;;2.43;;
52730;SDS011;38624;53.242;6.974;2024-02-23T04:27:08;10.53;;;1.73;;
52730;SDS011;38624;53.242;6.974;2024-02-23T04:29:34;10.50;;;1.77;;
52730;SDS011;38624;53.242;6.974;2024-02-23T04:32:00;10.05;;;1.70;;
52730;SDS011;38624;53.242;6.974;2024-02-23T04:34:27;9.40;;;1.58;;
52730;SDS011;38624;53.242;6.974;2024-02-23T04:36:53;13.95;;;1.95;;
52730;SDS011;38624;53.242;6.974;2024-02-23T04:39:20;8.23;;;1.60;;
52730;SDS011;38624;53.242;6.974;2024-02-23T04:41:46;10.82;;;1.95;;
52730;SDS011;38624;53.242;6.974;2024-02-23T04:44:12;9.87;;;1.60;;
52730;SDS011;38624;53.242;6.974;2024-02-23T04:46:38;8.47;;;1.63;;
52730;SDS011;38624;53.242;6.974;2024-02-23T04:49:04;10.33;;;2.07;;
52730;SDS011;38624;53.242;6.974;2024-02-23T04:51:30;7.18;;;1.77;;
52730;SDS011;38624;53.242;6.974;2024-02-23T04:53:56;9.18;;;1.75;;
52730;SDS011;38624;53.242;6.974;2024-02-23T04:56:22;9.55;;;1.90;;
52730;SDS011;38624;53.242;6.974;2024-02-23T04:58:48;10.67;;;1.90;;
52730;SDS011;38624;53.242;6.974;2024-02-23T05:01:14;6.13;;;2.20;;
52730;SDS011;38624;53.242;6.974;2024-02-23T05:03:41;12.63;;;2.03;;
52730;SDS011;38624;53.242;6.974;2024-02-23T05:06:07;9.33;;;1.93;;
52730;SDS011;38624;53.242;6.974;2024-02-23T05:08:33;9.70;;;2.00;;
52730;SDS011;38624;53.242;6.974;2024-02-23T05:10:59;9.87;;;2.30;;
52730;SDS011;38624;53.242;6.974;2024-02-23T05:13:25;8.45;;;1.92;;
52730;SDS011;38624;53.242;6.974;2024-02-23T05:15:51;11.35;;;1.77;;
52730;SDS011;38624;53.242;6.974;2024-02-23T05:18:17;8.97;;;2.20;;
52730;SDS011;38624;53.242;6.974;2024-02-23T05:20:43;8.98;;;1.70;;
52730;SDS011;38624;53.242;6.974;2024-02-23T05:23:10;7.60;;;1.80;;
52730;SDS011;38624;53.242;6.974;2024-02-23T05:25:38;7.43;;;1.60;;
52730;SDS011;38624;53.242;6.974;2024-02-23T05:28:04;10.45;;;2.00;;
52730;SDS011;38624;53.242;6.974;2024-02-23T05:30:33;7.13;;;1.75;;
52730;SDS011;38624;53.242;6.974;2024-02-23T05:32:59;13.77;;;2.05;;
52730;SDS011;38624;53.242;6.974;2024-02-23T05:35:28;8.45;;;1.80;;
52730;SDS011;38624;53.242;6.974;2024-02-23T05:37:54;10.03;;;1.83;;
52730;SDS011;38624;53.242;6.974;2024-02-23T05:40:20;8.03;;;1.67;;
52730;SDS011;38624;53.242;6.974;2024-02-23T05:42:47;7.40;;;1.92;;
52730;SDS011;38624;53.242;6.974;2024-02-23T05:45:15;9.13;;;2.40;;
52730;SDS011;38624;53.242;6.974;2024-02-23T05:47:41;9.27;;;2.60;;
52730;SDS011;38624;53.242;6.974;2024-02-23T05:50:08;9.50;;;2.63;;
52730;SDS011;38624;53.242;6.974;2024-02-23T05:52:34;9.55;;;2.90;;
52730;SDS011;38624;53.242;6.974;2024-02-23T05:55:02;9.05;;;3.15;;
52730;SDS011;38624;53.242;6.974;2024-02-23T05:57:29;9.85;;;3.30;;
52730;SDS011;38624;53.242;6.974;2024-02-23T05:59:55;14.97;;;4.07;;
52730;SDS011;38624;53.242;6.974;2024-02-23T06:02:22;12.48;;;3.88;;
52730;SDS011;38624;53.242;6.974;2024-02-23T06:04:48;11.95;;;4.10;;
52730;SDS011;38624;53.242;6.974;2024-02-23T06:07:14;9.43;;;4.60;;
52730;SDS011;38624;53.242;6.974;2024-02-23T06:09:41;9.68;;;4.90;;
52730;SDS011;38624;53.242;6.974;2024-02-23T06:12:07;9.05;;;4.97;;
52730;SDS011;38624;53.242;6.974;2024-02-23T06:14:33;13.38;;;5.70;;
52730;SDS011;38624;53.242;6.974;2024-02-23T06:17:00;12.23;;;5.63;;
52730;SDS011;38624;53.242;6.974;2024-02-23T06:19:26;13.77;;;6.20;;
52730;SDS011;38624;53.242;6.974;2024-02-23T06:21:52;10.85;;;5.63;;
52730;SDS011;38624;53.242;6.974;2024-02-23T06:24:18;13.27;;;6.30;;
52730;SDS011;38624;53.242;6.974;2024-02-23T06:26:44;8.98;;;5.82;;
52730;SDS011;38624;53.242;6.974;2024-02-23T06:29:11;12.68;;;6.22;;
52730;SDS011;38624;53.242;6.974;2024-02-23T06:31:39;12.35;;;6.10;;
52730;SDS011;38624;53.242;6.974;2024-02-23T06:34:05;15.73;;;6.32;;
52730;SDS011;38624;53.242;6.974;2024-02-23T06:36:31;13.43;;;6.10;;
52730;SDS011;38624;53.242;6.974;2024-02-23T06:38:57;13.15;;;5.95;;
52730;SDS011;38624;53.242;6.974;2024-02-23T06:41:23;11.97;;;5.47;;
52730;SDS011;38624;53.242;6.974;2024-02-23T06:43:50;18.08;;;6.90;;
52730;SDS011;38624;53.242;6.974;2024-02-23T06:46:18;15.57;;;6.30;;
52730;SDS011;38624;53.242;6.974;2024-02-23T06:48:46;14.40;;;6.60;;
52730;SDS011;38624;53.242;6.974;2024-02-23T06:51:12;11.43;;;5.50;;
52730;SDS011;38624;53.242;6.974;2024-02-23T06:53:38;18.33;;;5.67;;
52730;SDS011;38624;53.242;6.974;2024-02-23T06:56:04;9.73;;;5.13;;
52730;SDS011;38624;53.242;6.974;2024-02-23T06:58:30;11.50;;;5.30;;
52730;SDS011;38624;53.242;6.974;2024-02-23T07:00:56;12.15;;;5.72;;
52730;SDS011;38624;53.242;6.974;2024-02-23T07:03:23;16.15;;;6.03;;
52730;SDS011;38624;53.242;6.974;2024-02-23T07:05:49;13.48;;;5.32;;
52730;SDS011;38624;53.242;6.974;2024-02-23T07:08:15;17.93;;;5.90;;
52730;SDS011;38624;53.242;6.974;2024-02-23T07:10:41;14.60;;;6.28;;
52730;SDS011;38624;53.242;6.974;2024-02-23T07:13:07;12.87;;;5.73;;
52730;SDS011;38624;53.242;6.974;2024-02-23T07:15:34;12.13;;;5.20;;
52730;SDS011;38624;53.242;6.974;2024-02-23T07:18:01;13.60;;;5.85;;
52730;SDS011;38624;53.242;6.974;2024-02-23T07:20:27;13.38;;;6.07;;
52730;SDS011;38624;53.242;6.974;2024-02-23T07:22:53;11.02;;;5.20;;
52730;SDS011;38624;53.242;6.974;2024-02-23T07:25:22;9.85;;;5.32;;
52730;SDS011;38624;53.242;6.974;2024-02-23T07:27:48;13.70;;;5.95;;
52730;SDS011;38624;53.242;6.974;2024-02-23T07:30:15;12.20;;;5.43;;
52730;SDS011;38624;53.242;6.974;2024-02-23T07:32:44;11.90;;;5.60;;
52730;SDS011;38624;53.242;6.974;2024-02-23T07:35:17;12.70;;;5.20;;
52730;SDS011;38624;53.242;6.974;2024-02-23T07:37:43;12.32;;;4.80;;
52730;SDS011;38624;53.242;6.974;2024-02-23T07:40:09;17.03;;;6.17;;
52730;SDS011;38624;53.242;6.974;2024-02-23T07:42:35;9.02;;;4.82;;
52730;SDS011;38624;53.242;6.974;2024-02-23T07:45:02;13.00;;;5.45;;
52730;SDS011;38624;53.242;6.974;2024-02-23T07:49:55;10.18;;;4.80;;
52730;SDS011;38624;53.242;6.974;2024-02-23T07:52:21;12.13;;;4.77;;
52730;SDS011;38624;53.242;6.974;2024-02-23T07:54:53;11.27;;;4.78;;
52730;SDS011;38624;53.242;6.974;2024-02-23T07:57:20;9.63;;;4.35;;
52730;SDS011;38624;53.242;6.974;2024-02-23T07:59:49;12.85;;;4.88;;
52730;SDS011;38624;53.242;6.974;2024-02-23T08:02:15;9.90;;;5.53;;
52730;SDS011;38624;53.242;6.974;2024-02-23T08:04:41;11.33;;;5.00;;
52730;SDS011;38624;53.242;6.974;2024-02-23T08:07:08;14.17;;;5.37;;
52730;SDS011;38624;53.242;6.974;2024-02-23T08:09:34;9.75;;;4.35;;
52730;SDS011;38624;53.242;6.974;2024-02-23T08:12:00;10.40;;;4.60;;
52730;SDS011;38624;53.242;6.974;2024-02-23T08:14:26;12.68;;;4.45;;
52730;SDS011;38624;53.242;6.974;2024-02-23T08:16:53;13.55;;;4.90;;
52730;SDS011;38624;53.242;6.974;2024-02-23T08:19:19;10.57;;;4.72;;
52730;SDS011;38624;53.242;6.974;2024-02-23T08:21:45;10.33;;;4.50;;
52730;SDS011;38624;53.242;6.974;2024-02-23T08:24:11;8.93;;;3.70;;
52730;SDS011;38624;53.242;6.974;2024-02-23T08:26:37;8.43;;;3.50;;
52730;SDS011;38624;53.242;6.974;2024-02-23T08:29:07;10.10;;;3.35;;
52730;SDS011;38624;53.242;6.974;2024-02-23T08:31:34;7.50;;;3.25;;
52730;SDS011;38624;53.242;6.974;2024-02-23T08:34:02;9.80;;;3.40;;
52730;SDS011;38624;53.242;6.974;2024-02-23T08:36:28;8.95;;;3.15;;
52730;SDS011;38624;53.242;6.974;2024-02-23T08:38:54;9.60;;;3.50;;
52730;SDS011;38624;53.242;6.974;2024-02-23T08:41:21;7.73;;;2.80;;
52730;SDS011;38624;53.242;6.974;2024-02-23T08:43:47;7.15;;;2.70;;
52730;SDS011;38624;53.242;6.974;2024-02-23T08:46:13;8.18;;;3.08;;
52730;SDS011;38624;53.242;6.974;2024-02-23T08:48:39;8.80;;;2.90;;
52730;SDS011;38624;53.242;6.974;2024-02-23T08:51:05;8.00;;;2.60;;
52730;SDS011;38624;53.242;6.974;2024-02-23T08:53:32;11.23;;;2.72;;
52730;SDS011;38624;53.242;6.974;2024-02-23T08:55:58;7.97;;;2.57;;
52730;SDS011;38624;53.242;6.974;2024-02-23T08:58:26;6.65;;;2.10;;
52730;SDS011;38624;53.242;6.974;2024-02-23T09:00:57;6.53;;;2.38;;
52730;SDS011;38624;53.242;6.974;2024-02-23T09:03:26;9.35;;;2.58;;
52730;SDS011;38624;53.242;6.974;2024-02-23T09:05:52;10.43;;;2.70;;
52730;SDS011;38624;53.242;6.974;2024-02-23T09:08:21;8.82;;;2.00;;
52730;SDS011;38624;53.242;6.974;2024-02-23T09:10:47;4.77;;;2.10;;
52730;SDS011;38624;53.242;6.974;2024-02-23T09:13:13;7.83;;;2.30;;
52730;SDS011;38624;53.242;6.974;2024-02-23T09:15:41;7.50;;;1.95;;
52730;SDS011;38624;53.242;6.974;2024-02-23T09:18:08;7.78;;;2.20;;
52730;SDS011;38624;53.242;6.974;2024-02-23T09:20:34;6.55;;;2.15;;
52730;SDS011;38624;53.242;6.974;2024-02-23T09:23:02;7.00;;;2.15;;
52730;SDS011;38624;53.242;6.974;2024-02-23T09:25:29;7.73;;;2.20;;
52730;SDS011;38624;53.242;6.974;2024-02-23T09:27:58;5.05;;;2.00;;
52730;SDS011;38624;53.242;6.974;2024-02-23T09:30:26;5.40;;;1.90;;
52730;SDS011;38624;53.242;6.974;2024-02-23T09:32:55;7.30;;;2.03;;
52730;SDS011;38624;53.242;6.974;2024-02-23T09:35:21;6.03;;;1.95;;
52730;SDS011;38624;53.242;6.974;2024-02-23T09:37:47;7.33;;;2.27;;
52730;SDS011;38624;53.242;6.974;2024-02-23T09:40:14;6.50;;;2.10;;
52730;SDS011;38624;53.242;6.974;2024-02-23T09:42:43;5.28;;;1.90;;
52730;SDS011;38624;53.242;6.974;2024-02-23T09:45:11;8.13;;;2.03;;
52730;SDS011;38624;53.242;6.974;2024-02-23T09:47:40;6.93;;;1.65;;
52730;SDS011;38624;53.242;6.974;2024-02-23T09:50:17;9.07;;;1.90;;
52730;SDS011;38624;53.242;6.974;2024-02-23T09:52:44;7.47;;;2.00;;
52730;SDS011;38624;53.242;6.974;2024-02-23T09:55:11;6.03;;;1.90;;
52730;SDS011;38624;53.242;6.974;2024-02-23T09:57:37;4.50;;;1.75;;
52730;SDS011;38624;53.242;6.974;2024-02-23T10:00:04;4.47;;;1.48;;
52730;SDS011;38624;53.242;6.974;2024-02-23T10:02:31;4.45;;;1.50;;
52730;SDS011;38624;53.242;6.974;2024-02-23T10:04:58;6.82;;;1.50;;
52730;SDS011;38624;53.242;6.974;2024-02-23T10:07:25;10.20;;;1.63;;
52730;SDS011;38624;53.242;6.974;2024-02-23T10:09:52;6.00;;;1.60;;
52730;SDS011;38624;53.242;6.974;2024-02-23T10:12:20;8.98;;;1.73;;
52730;SDS011;38624;53.242;6.974;2024-02-23T10:14:46;5.95;;;1.80;;
52730;SDS011;38624;53.242;6.974;2024-02-23T10:17:12;5.13;;;1.40;;
52730;SDS011;38624;53.242;6.974;2024-02-23T10:19:39;5.90;;;1.60;;
52730;SDS011;38624;53.242;6.974;2024-02-23T10:22:05;6.70;;;2.00;;
52730;SDS011;38624;53.242;6.974;2024-02-23T10:24:31;6.67;;;1.70;;
52730;SDS011;38624;53.242;6.974;2024-02-23T10:26:57;6.33;;;1.50;;
52730;SDS011;38624;53.242;6.974;2024-02-23T10:29:23;6.90;;;1.97;;
52730;SDS011;38624;53.242;6.974;2024-02-23T10:31:50;6.22;;;1.42;;
52730;SDS011;38624;53.242;6.974;2024-02-23T10:34:18;6.07;;;1.48;;
52730;SDS011;38624;53.242;6.974;2024-02-23T10:36:44;11.50;;;1.52;;
52730;SDS011;38624;53.242;6.974;2024-02-23T10:39:15;4.55;;;1.35;;
52730;SDS011;38624;53.242;6.974;2024-02-23T10:41:44;3.92;;;1.33;;
52730;SDS011;38624;53.242;6.974;2024-02-23T10:44:15;4.80;;;1.40;;
52730;SDS011;38624;53.242;6.974;2024-02-23T10:46:43;5.07;;;1.17;;
52730;SDS011;38624;53.242;6.974;2024-02-23T10:49:10;9.20;;;1.58;;
52730;SDS011;38624;53.242;6.974;2024-02-23T10:51:36;5.78;;;1.13;;
52730;SDS011;38624;53.242;6.974;2024-02-23T10:54:04;6.05;;;1.30;;
52730;SDS011;38624;53.242;6.974;2024-02-23T10:56:32;7.47;;;1.40;;
52730;SDS011;38624;53.242;6.974;2024-02-23T10:58:58;5.28;;;1.35;;
52730;SDS011;38624;53.242;6.974;2024-02-23T11:01:24;6.77;;;1.70;;
52730;SDS011;38624;53.242;6.974;2024-02-23T11:03:50;9.55;;;2.00;;
52730;SDS011;38624;53.242;6.974;2024-02-23T11:06:18;5.53;;;1.30;;
52730;SDS011;38624;53.242;6.974;2024-02-23T11:08:46;5.70;;;1.58;;
52730;SDS011;38624;53.242;6.974;2024-02-23T11:11:15;7.40;;;1.60;;
52730;SDS011;38624;53.242;6.974;2024-02-23T11:13:43;7.63;;;1.50;;
52730;SDS011;38624;53.242;6.974;2024-02-23T11:16:10;5.95;;;1.50;;
52730;SDS011;38624;53.242;6.974;2024-02-23T11:18:39;7.00;;;1.60;;
52730;SDS011;38624;53.242;6.974;2024-02-23T11:21:05;8.27;;;1.50;;
52730;SDS011;38624;53.242;6.974;2024-02-23T11:23:53;9.15;;;1.38;;
52730;SDS011;38624;53.242;6.974;2024-02-23T11:26:23;6.65;;;1.38;;
52730;SDS011;38624;53.242;6.974;2024-02-23T11:28:51;5.15;;;1.67;;
52730;SDS011;38624;53.242;6.974;2024-02-23T11:31:19;7.40;;;1.48;;
52730;SDS011;38624;53.242;6.974;2024-02-23T11:33:49;9.10;;;1.73;;
52730;SDS011;38624;53.242;6.974;2024-02-23T11:36:23;7.28;;;1.60;;
52730;SDS011;38624;53.242;6.974;2024-02-23T11:38:52;5.85;;;1.40;;
52730;SDS011;38624;53.242;6.974;2024-02-23T11:41:19;5.03;;;1.33;;
52730;SDS011;38624;53.242;6.974;2024-02-23T11:43:45;4.45;;;1.50;;
52730;SDS011;38624;53.242;6.974;2024-02-23T11:46:22;4.57;;;1.30;;
52730;SDS011;38624;53.242;6.974;2024-02-23T11:48:48;7.10;;;1.35;;
52730;SDS011;38624;53.242;6.974;2024-02-23T11:51:30;8.48;;;1.38;;
52730;SDS011;38624;53.242;6.974;2024-02-23T11:53:56;3.42;;;1.70;;
52730;SDS011;38624;53.242;6.974;2024-02-23T11:56:23;6.25;;;1.40;;
52730;SDS011;38624;53.242;6.974;2024-02-23T11:58:52;9.70;;;1.67;;
52730;SDS011;38624;53.242;6.974;2024-02-23T12:01:19;7.38;;;1.50;;
52730;SDS011;38624;53.242;6.974;2024-02-23T12:03:45;7.93;;;1.43;;
52730;SDS011;38624;53.242;6.974;2024-02-23T12:06:13;7.13;;;1.60;;
52730;SDS011;38624;53.242;6.974;2024-02-23T12:08:43;6.38;;;1.40;;
52730;SDS011;38624;53.242;6.974;2024-02-23T12:11:12;4.25;;;1.42;;
52730;SDS011;38624;53.242;6.974;2024-02-23T12:13:39;6.25;;;1.60;;
52730;SDS011;38624;53.242;6.974;2024-02-23T12:16:07;4.55;;;1.20;;
52730;SDS011;38624;53.242;6.974;2024-02-23T12:18:35;6.40;;;1.30;;
52730;SDS011;38624;53.242;6.974;2024-02-23T12:21:01;5.30;;;1.35;;
52730;SDS011;38624;53.242;6.974;2024-02-23T12:23:40;5.03;;;1.00;;
52730;SDS011;38624;53.242;6.974;2024-02-23T12:26:06;4.18;;;1.30;;
52730;SDS011;38624;53.242;6.974;2024-02-23T12:28:33;5.88;;;1.50;;
52730;SDS011;38624;53.242;6.974;2024-02-23T12:31:00;6.00;;;1.60;;
52730;SDS011;38624;53.242;6.974;2024-02-23T12:33:31;4.65;;;1.20;;
52730;SDS011;38624;53.242;6.974;2024-02-23T12:36:00;7.15;;;1.35;;
52730;SDS011;38624;53.242;6.974;2024-02-23T12:38:27;5.38;;;1.20;;
52730;SDS011;38624;53.242;6.974;2024-02-23T12:40:53;6.40;;;1.20;;
52730;SDS011;38624;53.242;6.974;2024-02-23T12:43:19;6.28;;;1.33;;
52730;SDS011;38624;53.242;6.974;2024-02-23T12:45:52;4.32;;;1.20;;
52730;SDS011;38624;53.242;6.974;2024-02-23T12:48:19;3.83;;;1.27;;
52730;SDS011;38624;53.242;6.974;2024-02-23T12:50:46;3.25;;;1.02;;
52730;SDS011;38624;53.242;6.974;2024-02-23T12:55:58;3.72;;;1.20;;
52730;SDS011;38624;53.242;6.974;2024-02-23T12:58:24;4.20;;;1.45;;
52730;SDS011;38624;53.242;6.974;2024-02-23T13:00:51;6.20;;;1.40;;
52730;SDS011;38624;53.242;6.974;2024-02-23T13:03:17;4.88;;;1.58;;
52730;SDS011;38624;53.242;6.974;2024-02-23T13:05:43;3.35;;;1.30;;
52730;SDS011;38624;53.242;6.974;2024-02-23T13:08:09;5.80;;;1.20;;
52730;SDS011;38624;53.242;6.974;2024-02-23T13:10:35;4.35;;;1.63;;
52730;SDS011;38624;53.242;6.974;2024-02-23T13:13:01;5.73;;;1.50;;
52730;SDS011;38624;53.242;6.974;2024-02-23T13:15:30;2.65;;;1.20;;
52730;SDS011;38624;53.242;6.974;2024-02-23T13:17:56;5.97;;;1.42;;
52730;SDS011;38624;53.242;6.974;2024-02-23T13:20:22;4.47;;;1.58;;
52730;SDS011;38624;53.242;6.974;2024-02-23T13:22:49;4.68;;;1.52;;
52730;SDS011;38624;53.242;6.974;2024-02-23T13:25:15;5.63;;;1.52;;
52730;SDS011;38624;53.242;6.974;2024-02-23T13:27:41;7.55;;;1.52;;
52730;SDS011;38624;53.242;6.974;2024-02-23T13:30:08;5.90;;;1.40;;
52730;SDS011;38624;53.242;6.974;2024-02-23T13:32:34;5.07;;;1.45;;
52730;SDS011;38624;53.242;6.974;2024-02-23T13:35:00;4.57;;;1.60;;
52730;SDS011;38624;53.242;6.974;2024-02-23T13:37:29;4.65;;;1.55;;
52730;SDS011;38624;53.242;6.974;2024-02-23T13:39:55;2.90;;;1.35;;
52730;SDS011;38624;53.242;6.974;2024-02-23T13:42:21;4.27;;;1.30;;
52730;SDS011;38624;53.242;6.974;2024-02-23T13:44:47;6.53;;;2.05;;
52730;SDS011;38624;53.242;6.974;2024-02-23T13:47:14;6.27;;;1.60;;
52730;SDS011;38624;53.242;6.974;2024-02-23T13:49:40;4.70;;;1.50;;
52730;SDS011;38624;53.242;6.974;2024-02-23T13:52:06;6.05;;;1.50;;
52730;SDS011;38624;53.242;6.974;2024-02-23T13:54:32;5.17;;;1.50;;
52730;SDS011;38624;53.242;6.974;2024-02-23T13:56:58;3.17;;;1.58;;
52730;SDS011;38624;53.242;6.974;2024-02-23T13:59:24;3.80;;;1.30;;
52730;SDS011;38624;53.242;6.974;2024-02-23T14:01:50;3.87;;;1.67;;
52730;SDS011;38624;53.242;6.974;2024-02-23T14:04:18;4.55;;;1.88;;
52730;SDS011;38624;53.242;6.974;2024-02-23T14:06:44;4.60;;;1.60;;
52730;SDS011;38624;53.242;6.974;2024-02-23T14:09:10;3.83;;;1.60;;
52730;SDS011;38624;53.242;6.974;2024-02-23T14:11:36;6.50;;;1.50;;
52730;SDS011;38624;53.242;6.974;2024-02-23T14:14:05;6.28;;;1.70;;
52730;SDS011;38624;53.242;6.974;2024-02-23T14:16:31;4.82;;;1.58;;
52730;SDS011;38624;53.242;6.974;2024-02-23T14:18:57;5.13;;;1.88;;
52730;SDS011;38624;53.242;6.974;2024-02-23T14:21:24;4.93;;;1.60;;
52730;SDS011;38624;53.242;6.974;2024-02-23T14:23:50;6.03;;;1.65;;
52730;SDS011;38624;53.242;6.974;2024-02-23T14:26:16;6.25;;;1.60;;
52730;SDS011;38624;53.242;6.974;2024-02-23T14:28:43;4.00;;;1.43;;
52730;SDS011;38624;53.242;6.974;2024-02-23T14:31:09;6.60;;;1.63;;
52730;SDS011;38624;53.242;6.974;2024-02-23T14:33:35;4.15;;;1.50;;
52730;SDS011;38624;53.242;6.974;2024-02-23T14:36:01;5.43;;;1.40;;
52730;SDS011;38624;53.242;6.974;2024-02-23T14:38:28;6.28;;;1.70;;
52730;SDS011;38624;53.242;6.974;2024-02-23T14:40:54;6.37;;;1.87;;
52730;SDS011;38624;53.242;6.974;2024-02-23T14:43:20;4.07;;;1.45;;
52730;SDS011;38624;53.242;6.974;2024-02-23T14:45:46;5.77;;;1.73;;
52730;SDS011;38624;53.242;6.974;2024-02-23T14:48:12;5.32;;;1.63;;